createdAt,value
2023-03-30T00:01:49.188Z,14.68
2023-03-30T00:04:53.280Z,14.73
2023-03-30T00:07:56.648Z,14.38
2023-03-30T00:11:01.991Z,15.05
2023-03-30T00:14:06.977Z,13.43
2023-03-30T00:17:10.729Z,13.80
2023-03-30T00:20:15.889Z,13.95
2023-03-30T00:23:19.178Z,13.48
2023-03-30T00:26:22.443Z,12.60
2023-03-30T00:29:28.244Z,13.35
2023-03-30T00:32:31.413Z,13.88
2023-03-30T00:35:35.356Z,13.57
2023-03-30T00:38:38.564Z,13.10
2023-03-30T00:41:42.235Z,12.65
2023-03-30T00:45:10.475Z,13.10
2023-03-30T00:48:17.754Z,12.90
2023-03-30T00:51:21.217Z,13.13
2023-03-30T00:54:24.603Z,12.25
2023-03-30T00:57:29.145Z,12.07
2023-03-30T01:00:34.492Z,12.05
2023-03-30T01:03:43.580Z,13.23
2023-03-30T01:06:49.702Z,12.27
2023-03-30T01:09:53.753Z,12.13
2023-03-30T01:12:56.996Z,12.30
2023-03-30T01:16:10.619Z,12.13
2023-03-30T01:19:52.554Z,11.65
2023-03-30T01:23:07.010Z,11.38
2023-03-30T01:26:44.445Z,11.15
2023-03-30T01:30:06.725Z,11.35
2023-03-30T01:33:42.922Z,11.07
2023-03-30T01:37:24.089Z,12.20
2023-03-30T01:40:33.402Z,11.40
2023-03-30T01:43:41.864Z,13.45
2023-03-30T01:46:49.303Z,11.70
2023-03-30T01:49:58.911Z,11.52
2023-03-30T01:53:11.846Z,12.07
2023-03-30T01:56:21.969Z,10.93
2023-03-30T01:59:29.898Z,11.80
2023-03-30T02:02:35.053Z,11.80
2023-03-30T02:05:40.418Z,12.05
2023-03-30T02:08:46.271Z,12.70
2023-03-30T02:11:53.667Z,12.25
2023-03-30T02:14:59.743Z,12.65
2023-03-30T02:18:05.013Z,13.38
2023-03-30T02:21:10.177Z,12.85
2023-03-30T02:24:18.250Z,13.10
2023-03-30T02:27:23.678Z,13.75
2023-03-30T02:30:27.002Z,12.90
2023-03-30T02:33:38.192Z,14.50
2023-03-30T02:37:06.358Z,13.70
2023-03-30T02:40:26.402Z,13.63
2023-03-30T02:43:47.308Z,13.85
2023-03-30T02:47:01.557Z,13.32
2023-03-30T02:50:11.894Z,14.32
2023-03-30T02:53:24.879Z,13.15
2023-03-30T02:56:37.858Z,13.63
2023-03-30T02:59:51.108Z,13.45
2023-03-30T03:02:59.072Z,13.65
2023-03-30T03:09:13.178Z,12.48
2023-03-30T03:12:17.113Z,13.23
2023-03-30T03:15:22.346Z,12.55
2023-03-30T03:18:41.546Z,11.85
2023-03-30T03:21:44.898Z,12.45
2023-03-30T03:24:48.349Z,11.57
2023-03-30T03:27:52.650Z,11.90
2023-03-30T03:31:02.652Z,10.93
2023-03-30T03:34:06.778Z,11.98
2023-03-30T03:37:30.347Z,11.48
2023-03-30T03:40:33.488Z,11.85
2023-03-30T03:43:36.864Z,11.70
2023-03-30T03:46:41.749Z,11.93
2023-03-30T03:49:45.196Z,11.98
2023-03-30T03:52:48.596Z,11.55
2023-03-30T03:55:52.449Z,12.60
2023-03-30T03:58:55.672Z,13.02
2023-03-30T04:02:00.536Z,12.77
2023-03-30T04:05:04.480Z,12.63
2023-03-30T04:08:10.522Z,12.63
2023-03-30T04:11:14.492Z,12.65
2023-03-30T04:14:41.056Z,12.25
2023-03-30T04:18:05.732Z,12.77
2023-03-30T04:21:35.042Z,12.40
2023-03-30T04:24:51.549Z,12.10
2023-03-30T04:28:21.675Z,12.65
2023-03-30T04:31:46.992Z,12.25
2023-03-30T04:35:19.368Z,12.05
2023-03-30T04:38:36.454Z,12.50
2023-03-30T04:42:04.088Z,10.95
2023-03-30T04:45:27.738Z,11.35
2023-03-30T04:48:57.276Z,8.77
2023-03-30T04:52:17.035Z,10.73
2023-03-30T04:55:55.510Z,9.02
2023-03-30T04:59:13.115Z,12.05
2023-03-30T05:02:35.015Z,11.10
2023-03-30T05:05:57.144Z,11.18
2023-03-30T05:09:18.150Z,10.90
2023-03-30T05:12:41.674Z,9.98
2023-03-30T05:16:08.967Z,9.90
2023-03-30T05:19:24.009Z,10.02
2023-03-30T05:22:47.012Z,9.32
2023-03-30T05:26:30.558Z,10.45
2023-03-30T05:29:50.659Z,9.82
2023-03-30T05:33:09.897Z,9.68
2023-03-30T05:36:54.965Z,9.45
2023-03-30T05:40:16.111Z,9.68
2023-03-30T05:43:28.273Z,10.80
2023-03-30T05:46:58.815Z,9.65
2023-03-30T05:50:37.775Z,9.48
2023-03-30T05:53:46.210Z,9.48
2023-03-30T05:57:10.216Z,9.20
2023-03-30T06:00:36.571Z,8.98
2023-03-30T06:03:49.079Z,10.25
2023-03-30T06:06:53.129Z,9.13
2023-03-30T06:09:59.648Z,9.32
2023-03-30T06:13:05.005Z,9.18
2023-03-30T06:16:39.410Z,10.82
2023-03-30T06:19:43.771Z,10.00
2023-03-30T06:22:47.332Z,9.27
2023-03-30T06:25:57.615Z,10.02
2023-03-30T06:29:05.644Z,9.23
2023-03-30T06:32:10.485Z,10.38
2023-03-30T06:35:16.914Z,9.32
2023-03-30T06:38:21.815Z,9.65
2023-03-30T06:41:26.565Z,8.70
2023-03-30T06:44:29.933Z,9.70
2023-03-30T06:47:39.220Z,9.20
2023-03-30T06:50:43.265Z,9.23
2023-03-30T06:53:54.492Z,8.48
2023-03-30T06:56:57.923Z,9.00
2023-03-30T07:00:01.286Z,8.43
2023-03-30T07:03:19.267Z,9.02
2023-03-30T07:06:38.337Z,12.75
2023-03-30T07:09:41.957Z,9.48
2023-03-30T07:12:45.681Z,18.63
2023-03-30T07:15:49.536Z,12.32
2023-03-30T07:18:54.403Z,10.90
2023-03-30T07:21:57.768Z,10.60
2023-03-30T07:25:03.697Z,10.50
2023-03-30T07:28:07.370Z,8.98
2023-03-30T07:31:13.798Z,11.35
2023-03-30T07:34:19.837Z,11.20
2023-03-30T07:37:29.686Z,12.48
2023-03-30T07:40:33.283Z,13.65
2023-03-30T07:43:37.029Z,13.10
2023-03-30T07:46:41.174Z,10.98
2023-03-30T07:49:51.054Z,11.68
2023-03-30T07:52:54.273Z,10.52
2023-03-30T07:55:58.097Z,10.55
2023-03-30T07:59:10.853Z,10.80
2023-03-30T08:02:15.829Z,12.27
2023-03-30T08:05:29.246Z,8.50
2023-03-30T08:08:44.115Z,8.65
2023-03-30T08:11:48.184Z,7.65
2023-03-30T08:14:51.373Z,8.75
2023-03-30T08:17:54.623Z,8.63
2023-03-30T08:20:59.322Z,7.88
2023-03-30T08:24:02.489Z,8.10
2023-03-30T08:27:05.855Z,7.55
2023-03-30T08:30:10.898Z,8.10
2023-03-30T08:33:14.728Z,7.28
2023-03-30T08:36:20.214Z,7.30
2023-03-30T08:39:24.371Z,7.53
2023-03-30T08:42:42.999Z,8.25
2023-03-30T08:45:47.055Z,7.95
2023-03-30T08:48:51.253Z,7.93
2023-03-30T08:51:56.787Z,7.20
2023-03-30T08:55:00.054Z,7.85
2023-03-30T08:58:10.833Z,8.35
2023-03-30T09:01:21.448Z,8.70
2023-03-30T09:04:34.724Z,10.43
2023-03-30T09:07:46.456Z,8.60
2023-03-30T09:10:55.018Z,10.57
2023-03-30T09:14:01.856Z,9.02
2023-03-30T09:17:09.805Z,16.13
2023-03-30T09:20:17.279Z,8.98
2023-03-30T09:23:22.415Z,8.75
2023-03-30T09:26:42.788Z,8.73
2023-03-30T09:33:00.901Z,9.68
2023-03-30T09:36:13.148Z,9.10
2023-03-30T09:39:21.369Z,8.63
2023-03-30T09:42:34.871Z,9.05
2023-03-30T09:45:39.103Z,8.00
2023-03-30T09:48:43.879Z,8.73
2023-03-30T09:52:03.374Z,8.48
2023-03-30T09:55:28.668Z,8.50
2023-03-30T09:58:33.810Z,8.30
2023-03-30T10:01:39.069Z,8.07
2023-03-30T10:04:58.267Z,8.15
2023-03-30T10:08:04.166Z,8.88
2023-03-30T10:11:09.138Z,8.10
2023-03-30T10:14:31.563Z,7.70
2023-03-30T10:17:34.985Z,7.68
2023-03-30T10:20:39.834Z,8.48
2023-03-30T10:23:45.695Z,8.10
2023-03-30T10:26:53.372Z,7.88
2023-03-30T10:29:56.753Z,7.88
2023-03-30T10:33:02.746Z,7.07
2023-03-30T10:36:08.779Z,8.00
2023-03-30T10:39:15.943Z,7.82
2023-03-30T10:42:24.844Z,8.32
2023-03-30T10:45:37.517Z,8.45
2023-03-30T10:48:52.416Z,8.07
2023-03-30T10:52:04.194Z,8.45
2023-03-30T10:55:16.242Z,8.82
2023-03-30T10:58:34.951Z,8.30
2023-03-30T11:01:48.013Z,7.72
2023-03-30T11:04:55.628Z,8.60
2023-03-30T11:08:03.563Z,7.60
2023-03-30T11:11:08.188Z,7.75
2023-03-30T11:14:20.933Z,7.47
2023-03-30T11:17:29.099Z,7.40
2023-03-30T11:20:34.979Z,7.47
2023-03-30T11:23:45.807Z,7.47
2023-03-30T11:26:54.675Z,7.25
2023-03-30T11:30:10.701Z,7.97
2023-03-30T11:33:24.728Z,7.78
2023-03-30T11:36:35.375Z,8.43
2023-03-30T11:39:42.419Z,8.45
2023-03-30T11:42:47.337Z,8.38
2023-03-30T11:46:04.017Z,8.80
2023-03-30T11:49:23.728Z,8.45
2023-03-30T11:52:32.415Z,12.75
2023-03-30T11:55:49.014Z,18.95
2023-03-30T11:59:02.103Z,12.95
2023-03-30T12:02:16.688Z,10.30
2023-03-30T12:05:27.149Z,16.40
2023-03-30T12:12:04.231Z,8.82
2023-03-30T12:15:34.332Z,7.53
2023-03-30T12:18:43.780Z,7.18
2023-03-30T12:21:53.458Z,6.53
2023-03-30T12:25:03.707Z,6.70
2023-03-30T12:28:13.222Z,6.82
2023-03-30T12:31:17.985Z,6.80
2023-03-30T12:34:24.501Z,6.88
2023-03-30T12:37:33.504Z,6.43
2023-03-30T12:40:38.148Z,7.28
2023-03-30T12:43:56.333Z,7.50
2023-03-30T12:47:22.555Z,6.63
2023-03-30T12:50:37.185Z,6.20
2023-03-30T12:54:05.382Z,7.57
2023-03-30T12:57:22.569Z,6.90
2023-03-30T13:01:03.066Z,7.05
2023-03-30T13:07:18.797Z,7.47
2023-03-30T13:10:52.281Z,6.47
2023-03-30T13:14:00.866Z,6.85
2023-03-30T13:17:12.714Z,6.57
2023-03-30T13:20:28.379Z,6.90
2023-03-30T13:23:37.706Z,6.75
2023-03-30T13:26:44.861Z,6.97
2023-03-30T13:29:53.387Z,7.40
2023-03-30T13:33:06.394Z,6.50
2023-03-30T13:36:13.573Z,8.13
2023-03-30T13:39:24.243Z,7.10
2023-03-30T13:42:46.988Z,7.35
2023-03-30T13:46:09.226Z,7.80
2023-03-30T13:49:39.377Z,7.30
2023-03-30T13:52:47.091Z,7.88
2023-03-30T13:55:52.250Z,9.23
2023-03-30T13:59:02.375Z,10.05
2023-03-30T14:02:06.330Z,11.18
2023-03-30T14:05:15.404Z,11.05
2023-03-30T14:08:19.545Z,10.27
2023-03-30T14:11:29.199Z,11.77
2023-03-30T14:14:37.573Z,11.10
2023-03-30T14:17:42.019Z,19.38
2023-03-30T14:20:50.203Z,23.63
2023-03-30T14:23:55.805Z,21.40
2023-03-30T14:27:08.822Z,42.38
2023-03-30T14:30:20.790Z,30.13
2023-03-30T14:33:24.849Z,32.53
2023-03-30T14:36:28.445Z,11.93
2023-03-30T14:39:33.990Z,9.48
2023-03-30T14:42:39.591Z,8.70
2023-03-30T14:45:43.459Z,8.20
2023-03-30T14:48:50.675Z,9.45
2023-03-30T14:52:00.818Z,14.38
2023-03-30T14:55:08.487Z,7.43
2023-03-30T14:58:16.508Z,9.88
2023-03-30T15:01:25.918Z,14.77
2023-03-30T15:04:35.252Z,19.17
2023-03-30T15:07:38.638Z,15.80
2023-03-30T15:10:47.606Z,14.48
2023-03-30T15:13:57.702Z,13.00
2023-03-30T15:17:02.368Z,11.75
2023-03-30T15:20:07.895Z,8.82
2023-03-30T15:23:14.742Z,10.60
2023-03-30T15:26:19.481Z,10.25
2023-03-30T15:29:25.056Z,13.88
2023-03-30T15:32:35.230Z,10.48
2023-03-30T15:35:39.762Z,10.13
2023-03-30T15:38:50.065Z,11.63
2023-03-30T15:42:01.659Z,11.00
2023-03-30T15:45:12.221Z,15.75
2023-03-30T15:51:26.405Z,15.20
2023-03-30T15:54:35.418Z,10.82
2023-03-30T15:57:44.146Z,40.72
2023-03-30T16:00:49.351Z,19.13
2023-03-30T16:03:56.808Z,14.18
2023-03-30T16:07:00.447Z,24.13
2023-03-30T16:10:03.641Z,32.58
2023-03-30T16:13:07.290Z,13.30
2023-03-30T16:16:13.848Z,77.43
2023-03-30T16:19:20.036Z,89.65
2023-03-30T16:22:23.465Z,100.20
2023-03-30T16:25:41.793Z,28.13
2023-03-30T16:28:49.047Z,24.52
2023-03-30T16:31:54.449Z,63.70
2023-03-30T16:34:57.685Z,83.88
2023-03-30T16:38:01.575Z,51.95
2023-03-30T16:41:05.940Z,51.83
2023-03-30T16:44:09.399Z,32.47
2023-03-30T16:47:15.737Z,30.50
2023-03-30T16:50:23.097Z,39.83
2023-03-30T16:53:26.417Z,38.90
2023-03-30T16:56:30.133Z,42.78
2023-03-30T16:59:34.209Z,27.75
2023-03-30T17:02:38.881Z,25.42
2023-03-30T17:05:45.687Z,26.00
2023-03-30T17:08:48.988Z,34.45
2023-03-30T17:11:52.293Z,28.13
2023-03-30T17:14:56.114Z,26.85
2023-03-30T17:18:01.647Z,25.83
2023-03-30T17:21:05.509Z,28.40
2023-03-30T17:24:09.970Z,19.70
2023-03-30T17:27:13.469Z,17.50
2023-03-30T17:30:20.639Z,20.42
2023-03-30T17:33:26.138Z,15.23
2023-03-30T17:36:29.837Z,18.05
2023-03-30T17:39:33.918Z,18.05
2023-03-30T17:42:37.480Z,18.77
2023-03-30T17:45:41.910Z,21.10
2023-03-30T17:48:46.827Z,23.10
2023-03-30T17:51:50.123Z,23.60
2023-03-30T17:54:53.486Z,39.47
2023-03-30T17:57:56.827Z,54.85
2023-03-30T18:01:01.939Z,58.13
2023-03-30T18:04:06.941Z,30.90
2023-03-30T18:07:12.807Z,29.95
2023-03-30T18:10:24.877Z,34.20
2023-03-30T18:13:29.746Z,45.13
2023-03-30T18:16:33.469Z,35.25
2023-03-30T18:19:38.274Z,43.10
2023-03-30T18:22:41.846Z,54.78
2023-03-30T18:25:45.917Z,39.70
2023-03-30T18:28:49.593Z,58.42
2023-03-30T18:31:52.830Z,55.10
2023-03-30T18:34:57.502Z,68.22
2023-03-30T18:38:01.094Z,68.53
2023-03-30T18:41:05.008Z,69.30
2023-03-30T18:44:08.920Z,57.03
2023-03-30T18:47:12.150Z,122.85
2023-03-30T18:50:20.551Z,124.70
2023-03-30T18:53:25.167Z,232.77
2023-03-30T18:56:28.416Z,111.30
2023-03-30T18:59:31.625Z,36.78
2023-03-30T19:02:35.057Z,36.75
2023-03-30T19:05:40.973Z,41.92
2023-03-30T19:08:44.523Z,46.25
2023-03-30T19:11:50.576Z,46.90
2023-03-30T19:14:53.967Z,39.95
2023-03-30T19:17:57.476Z,31.80
2023-03-30T19:21:02.253Z,36.45
2023-03-30T19:24:05.890Z,34.33
2023-03-30T19:27:09.245Z,41.40
2023-03-30T19:30:15.051Z,36.88
2023-03-30T19:33:20.748Z,32.60
2023-03-30T19:36:25.526Z,33.45
2023-03-30T19:39:31.958Z,36.75
2023-03-30T19:42:36.896Z,30.00
2023-03-30T19:45:40.423Z,20.85
2023-03-30T19:48:43.779Z,27.60
2023-03-30T19:51:49.074Z,23.08
2023-03-30T19:54:52.821Z,21.13
2023-03-30T19:57:57.396Z,23.45
2023-03-30T20:01:05.621Z,41.60
2023-03-30T20:04:08.991Z,45.25
2023-03-30T20:07:14.371Z,40.50
2023-03-30T20:10:20.873Z,36.38
2023-03-30T20:13:24.462Z,29.05
2023-03-30T20:16:29.893Z,50.28
2023-03-30T20:19:33.206Z,26.48
2023-03-30T20:22:42.929Z,21.85
2023-03-30T20:25:49.289Z,24.52
2023-03-30T20:28:52.735Z,21.63
2023-03-30T20:31:56.188Z,19.83
2023-03-30T20:34:59.541Z,20.17
2023-03-30T20:38:04.831Z,19.70
2023-03-30T20:41:11.437Z,22.67
2023-03-30T20:44:18.135Z,20.15
2023-03-30T20:47:23.184Z,19.27
2023-03-30T20:50:27.191Z,32.42
2023-03-30T20:53:32.273Z,33.72
2023-03-30T20:56:35.903Z,24.92
2023-03-30T20:59:39.432Z,20.45
2023-03-30T21:02:42.913Z,18.90
2023-03-30T21:05:46.330Z,23.17
2023-03-30T21:08:51.053Z,19.60
2023-03-30T21:11:54.612Z,20.73
2023-03-30T21:14:57.816Z,19.95
2023-03-30T21:18:01.248Z,25.17
2023-03-30T21:21:06.003Z,20.25
2023-03-30T21:24:13.322Z,24.02
2023-03-30T21:27:16.767Z,20.63
2023-03-30T21:30:20.181Z,21.77
2023-03-30T21:33:23.695Z,21.35
2023-03-30T21:36:26.970Z,29.15
2023-03-30T21:39:31.532Z,22.42
2023-03-30T21:42:35.465Z,22.52
2023-03-30T21:45:38.652Z,23.73
2023-03-30T21:48:43.920Z,21.77
2023-03-30T21:51:47.151Z,20.95
2023-03-30T21:54:52.083Z,22.70
2023-03-30T21:57:55.263Z,21.73
2023-03-30T22:01:10.662Z,21.73
2023-03-30T22:04:15.357Z,22.65
2023-03-30T22:07:18.617Z,23.55
2023-03-30T22:10:23.257Z,41.33
2023-03-30T22:13:27.204Z,20.15
2023-03-30T22:16:33.168Z,29.30
2023-03-30T22:19:36.548Z,19.20
2023-03-30T22:22:39.996Z,22.67
2023-03-30T22:25:44.552Z,19.10
2023-03-30T22:28:48.061Z,19.48
2023-03-30T22:31:55.674Z,18.65
2023-03-30T22:34:58.889Z,18.00
2023-03-30T22:38:02.034Z,20.08
2023-03-30T22:41:07.947Z,17.70
2023-03-30T22:44:11.270Z,19.13
2023-03-30T22:47:14.483Z,18.83
2023-03-30T22:50:18.273Z,20.02
2023-03-30T22:53:21.388Z,18.73
2023-03-30T22:56:27.155Z,20.02
2023-03-30T22:59:31.413Z,22.67
2023-03-30T23:02:34.829Z,19.58
2023-03-30T23:05:38.997Z,20.52
2023-03-30T23:08:42.488Z,21.08
2023-03-30T23:11:47.172Z,21.20
2023-03-30T23:14:50.435Z,21.23
2023-03-30T23:17:53.914Z,21.15
2023-03-30T23:20:57.967Z,22.73
2023-03-30T23:24:02.154Z,22.83
2023-03-30T23:27:06.731Z,22.98
2023-03-30T23:30:11.338Z,23.30
2023-03-30T23:33:14.844Z,24.08
2023-03-30T23:36:19.053Z,24.27
